Orbital elements of SL-12 R/B(2)
| Launched | 22 November 1990 |
| Flight ended | – |
| Launch site | Tyuratam Missile and Space Center, Kazakhstan (Also known as Baikonur Cosmodrome) |
| Owner | Commonwealth of Independent States (former USSR) |
| NORAD ID | 21046 |
| Date fetched |
Epoch osculation |
Inc. [°] |
Ecc. | RA asc node [hr] |
Arg Peri. [°] |
Mean anom [°] |
Mean motion [rev/day] |
Abs. mag |
| Date fetched |
Epoch osculation |
Inc. [°] |
Ecc. | RA asc node [hr] |
Arg Peri. [°] |
Mean anom [°] |
Mean motion [rev/day] |
Abs. mag |
| 2026 May 05 17:57 | 2026 May 04 21:41:16 | 13.9117 | 0.00176 | 22.7462 | 212.7891 | 334.7064 | 0.97867 | – |
| 2026 May 04 17:57 | 2026 Apr 30 06:39:01 | 13.9154 | 0.00177 | 22.7482 | 212.6253 | 334.7064 | 0.97867 | – |
| 2026 May 03 17:57 | 2026 Apr 30 06:39:01 | 13.9154 | 0.00177 | 22.7482 | 212.6253 | 334.7064 | 0.97867 | – |
| 2026 May 02 17:57 | 2026 Apr 30 06:39:01 | 13.9154 | 0.00177 | 22.7482 | 212.6253 | 334.7064 | 0.97867 | – |
| 2026 May 01 17:56 | 2026 Apr 30 06:39:01 | 13.9154 | 0.00177 | 22.7482 | 212.6253 | 334.7064 | 0.97867 | – |
| 2026 Apr 30 17:56 | 2026 Apr 30 06:39:01 | 13.9154 | 0.00177 | 22.7482 | 212.6253 | 334.7064 | 0.97867 | – |
| 2026 Apr 29 17:57 | 2026 Apr 24 03:44:05 | 13.9199 | 0.00176 | 22.7509 | 212.3853 | 334.7064 | 0.97867 | – |
| 2026 Apr 28 17:56 | 2026 Apr 24 03:44:05 | 13.9199 | 0.00176 | 22.7509 | 212.3853 | 334.7064 | 0.97867 | – |
| 2026 Apr 27 17:58 | 2026 Apr 24 03:44:05 | 13.9199 | 0.00176 | 22.7509 | 212.3853 | 334.7064 | 0.97867 | – |
| 2026 Apr 26 17:58 | 2026 Apr 24 03:44:05 | 13.9199 | 0.00176 | 22.7509 | 212.3853 | 334.7064 | 0.97867 | – |
| 2026 Apr 25 17:58 | 2026 Apr 24 03:44:05 | 13.9199 | 0.00176 | 22.7509 | 212.3853 | 334.7064 | 0.97867 | – |
| 2026 Apr 24 17:59 | 2026 Apr 24 03:44:05 | 13.9199 | 0.00176 | 22.7509 | 212.3853 | 334.7064 | 0.97867 | – |
| 2026 Apr 23 17:57 | 2026 Apr 19 00:44:20 | 13.9238 | 0.00175 | 22.7533 | 212.5409 | 334.7064 | 0.97867 | – |
| 2026 Apr 22 17:57 | 2026 Apr 19 00:44:20 | 13.9238 | 0.00175 | 22.7533 | 212.5409 | 334.7064 | 0.97867 | – |
| 2026 Apr 21 17:57 | 2026 Apr 19 00:44:20 | 13.9238 | 0.00175 | 22.7533 | 212.5409 | 334.7064 | 0.97867 | – |
| 2026 Apr 20 17:57 | 2026 Apr 19 00:44:20 | 13.9238 | 0.00175 | 22.7533 | 212.5409 | 334.7064 | 0.97867 | – |
| 2026 Apr 19 17:58 | 2026 Apr 19 00:44:20 | 13.9238 | 0.00175 | 22.7533 | 212.5409 | 334.7064 | 0.97867 | – |
| 2026 Apr 18 17:56 | 2026 Apr 12 10:11:38 | 13.9289 | 0.00176 | 22.7563 | 212.9383 | 334.7064 | 0.97867 | – |
| 2026 Apr 16 17:57 | 2026 Apr 12 10:11:38 | 13.9289 | 0.00176 | 22.7563 | 212.9383 | 334.7064 | 0.97867 | – |
| 2026 Apr 14 17:57 | 2026 Apr 12 10:11:38 | 13.9289 | 0.00176 | 22.7563 | 212.9383 | 334.7064 | 0.97867 | – |
| 2026 Apr 13 17:57 | 2026 Apr 12 10:11:38 | 13.9289 | 0.00176 | 22.7563 | 212.9383 | 334.7064 | 0.97867 | – |
| 2026 Apr 12 17:57 | 2026 Apr 08 08:33:38 | 13.9319 | 0.00176 | 22.7581 | 213.0376 | 334.7064 | 0.97867 | – |
| 2026 Apr 11 17:57 | 2026 Apr 08 08:33:38 | 13.9319 | 0.00176 | 22.7581 | 213.0376 | 334.7064 | 0.97867 | – |
| 2026 Apr 10 17:58 | 2026 Apr 08 08:33:38 | 13.9319 | 0.00176 | 22.7581 | 213.0376 | 334.7064 | 0.97867 | – |
| 2026 Apr 09 18:01 | 2026 Apr 08 08:33:38 | 13.9319 | 0.00176 | 22.7581 | 213.0376 | 334.7064 | 0.97867 | – |
| 2026 Apr 08 17:57 | 2026 Apr 08 08:33:38 | 13.9319 | 0.00176 | 22.7581 | 213.0376 | 334.7064 | 0.97867 | – |